sensor_id;sensor_type;location;lat;lon;timestamp;pressure;altitude;pressure_sealevel;temperature;humidity
37710;BME280;60223;34.854;-92.408;2023-03-04T00:01:25;99641.93;;;19.51;40.71
37710;BME280;60223;34.854;-92.408;2023-03-04T00:03:51;99649.38;;;19.26;40.54
37710;BME280;60223;34.854;-92.408;2023-03-04T00:06:17;99653.33;;;19.89;40.92
37710;BME280;60223;34.854;-92.408;2023-03-04T00:08:43;99662.08;;;19.42;40.41
37710;BME280;60223;34.854;-92.408;2023-03-04T00:11:07;99659.61;;;19.38;40.44
37710;BME280;60223;34.854;-92.408;2023-03-04T00:13:34;99669.94;;;19.39;40.44
37710;BME280;60223;34.854;-92.408;2023-03-04T00:15:59;99681.94;;;19.25;41.09
37710;BME280;60223;34.854;-92.408;2023-03-04T00:18:25;99692.91;;;18.68;41.58
37710;BME280;60223;34.854;-92.408;2023-03-04T00:20:51;99698.37;;;19.00;41.37
37710;BME280;60223;34.854;-92.408;2023-03-04T00:23:17;99699.37;;;19.37;40.91
37710;BME280;60223;34.854;-92.408;2023-03-04T00:25:42;99696.10;;;20.53;39.83
37710;BME280;60223;34.854;-92.408;2023-03-04T00:28:08;99697.68;;;20.18;39.59
37710;BME280;60223;34.854;-92.408;2023-03-04T00:30:32;99696.99;;;19.54;40.47
37710;BME280;60223;34.854;-92.408;2023-03-04T00:32:59;99704.61;;;19.54;40.86
37710;BME280;60223;34.854;-92.408;2023-03-04T00:35:25;99705.72;;;19.53;40.86
37710;BME280;60223;34.854;-92.408;2023-03-04T00:37:51;99711.52;;;19.73;40.23
37710;BME280;60223;34.854;-92.408;2023-03-04T00:40:16;99721.81;;;19.34;40.90
37710;BME280;60223;34.854;-92.408;2023-03-04T00:42:42;99728.39;;;19.42;40.79
37710;BME280;60223;34.854;-92.408;2023-03-04T00:45:09;99738.61;;;19.65;40.48
37710;BME280;60223;34.854;-92.408;2023-03-04T00:47:33;99742.99;;;19.43;40.69
37710;BME280;60223;34.854;-92.408;2023-03-04T00:49:59;99750.09;;;19.44;40.96
37710;BME280;60223;34.854;-92.408;2023-03-04T00:52:24;99753.17;;;19.34;41.41
37710;BME280;60223;34.854;-92.408;2023-03-04T00:54:51;99761.40;;;19.26;40.88
37710;BME280;60223;34.854;-92.408;2023-03-04T00:57:14;99759.08;;;19.37;40.65
37710;BME280;60223;34.854;-92.408;2023-03-04T00:59:42;99747.43;;;19.66;40.62
37710;BME280;60223;34.854;-92.408;2023-03-04T01:02:08;99748.19;;;19.25;41.16
37710;BME280;60223;34.854;-92.408;2023-03-04T01:04:33;99747.72;;;20.43;40.05
37710;BME280;60223;34.854;-92.408;2023-03-04T01:06:59;99770.29;;;20.10;38.97
37710;BME280;60223;34.854;-92.408;2023-03-04T01:09:24;99775.84;;;19.82;39.18
37710;BME280;60223;34.854;-92.408;2023-03-04T01:11:48;99779.03;;;19.62;40.24
37710;BME280;60223;34.854;-92.408;2023-03-04T01:14:16;99781.31;;;19.39;40.75
37710;BME280;60223;34.854;-92.408;2023-03-04T01:16:41;99787.05;;;19.47;40.41
37710;BME280;60223;34.854;-92.408;2023-03-04T01:19:07;99781.28;;;19.89;40.45
37710;BME280;60223;34.854;-92.408;2023-03-04T01:21:33;99788.43;;;19.60;40.73
37710;BME280;60223;34.854;-92.408;2023-03-04T01:23:58;99794.50;;;19.41;40.84
37710;BME280;60223;34.854;-92.408;2023-03-04T01:26:24;99801.51;;;19.27;40.76
37710;BME280;60223;34.854;-92.408;2023-03-04T01:28:50;99814.35;;;19.28;41.07
37710;BME280;60223;34.854;-92.408;2023-03-04T01:31:14;99822.29;;;19.21;41.08
37710;BME280;60223;34.854;-92.408;2023-03-04T01:33:41;99825.26;;;18.94;41.13
37710;BME280;60223;34.854;-92.408;2023-03-04T01:36:07;99822.13;;;19.10;41.17
37710;BME280;60223;34.854;-92.408;2023-03-04T01:38:33;99824.97;;;18.87;41.37
37710;BME280;60223;34.854;-92.408;2023-03-04T01:40:58;99821.13;;;19.33;41.88
37710;BME280;60223;34.854;-92.408;2023-03-04T01:43:26;99829.28;;;19.15;41.40
37710;BME280;60223;34.854;-92.408;2023-03-04T01:45:50;99839.15;;;20.23;40.48
37710;BME280;60223;34.854;-92.408;2023-03-04T01:48:18;99842.82;;;20.17;40.07
37710;BME280;60223;34.854;-92.408;2023-03-04T01:50:38;99845.39;;;19.87;39.37
37710;BME280;60223;34.854;-92.408;2023-03-04T01:53:09;99848.54;;;19.19;40.70
37710;BME280;60223;34.854;-92.408;2023-03-04T01:55:33;99858.25;;;19.43;40.61
37710;BME280;60223;34.854;-92.408;2023-03-04T01:57:58;99863.89;;;19.37;40.46
37710;BME280;60223;34.854;-92.408;2023-03-04T02:00:27;99870.63;;;19.73;39.94
37710;BME280;60223;34.854;-92.408;2023-03-04T02:02:52;99876.43;;;19.40;40.58
37710;BME280;60223;34.854;-92.408;2023-03-04T02:05:16;99878.90;;;19.70;40.04
37710;BME280;60223;34.854;-92.408;2023-03-04T02:07:41;99880.84;;;19.13;40.24
37710;BME280;60223;34.854;-92.408;2023-03-04T02:10:07;99880.26;;;19.35;40.25
37710;BME280;60223;34.854;-92.408;2023-03-04T02:12:32;99891.60;;;19.09;40.29
37710;BME280;60223;34.854;-92.408;2023-03-04T02:14:57;99903.21;;;19.39;40.69
37710;BME280;60223;34.854;-92.408;2023-03-04T02:17:27;99903.06;;;19.25;40.61
37710;BME280;60223;34.854;-92.408;2023-03-04T02:19:55;99905.38;;;19.42;40.56
37710;BME280;60223;34.854;-92.408;2023-03-04T02:22:15;99907.53;;;19.30;40.95
37710;BME280;60223;34.854;-92.408;2023-03-04T02:24:43;99917.73;;;20.31;39.41
37710;BME280;60223;34.854;-92.408;2023-03-04T02:27:06;99922.85;;;20.15;39.71
37710;BME280;60223;34.854;-92.408;2023-03-04T02:29:32;99926.16;;;20.22;38.88
37710;BME280;60223;34.854;-92.408;2023-03-04T02:31:58;99930.95;;;19.75;40.03
37710;BME280;60223;34.854;-92.408;2023-03-04T02:34:24;99935.75;;;19.19;40.11
37710;BME280;60223;34.854;-92.408;2023-03-04T02:36:51;99937.05;;;19.72;39.92
37710;BME280;60223;34.854;-92.408;2023-03-04T02:41:41;99937.49;;;18.98;40.18
37710;BME280;60223;34.854;-92.408;2023-03-04T02:44:09;99939.93;;;19.11;40.24
37710;BME280;60223;34.854;-92.408;2023-03-04T02:46:31;99940.11;;;19.16;40.82
37710;BME280;60223;34.854;-92.408;2023-03-04T02:48:57;99944.15;;;19.23;40.81
37710;BME280;60223;34.854;-92.408;2023-03-04T02:51:22;99957.74;;;18.94;40.86
37710;BME280;60223;34.854;-92.408;2023-03-04T02:53:49;99966.38;;;18.99;41.08
37710;BME280;60223;34.854;-92.408;2023-03-04T02:56:16;99972.65;;;20.54;38.35
37710;BME280;60223;34.854;-92.408;2023-03-04T02:58:40;99982.04;;;20.13;38.60
37710;BME280;60223;34.854;-92.408;2023-03-04T03:01:06;99981.88;;;19.81;38.83
37710;BME280;60223;34.854;-92.408;2023-03-04T03:03:31;99986.81;;;19.46;39.73
37710;BME280;60223;34.854;-92.408;2023-03-04T03:05:57;99991.99;;;19.55;40.00
37710;BME280;60223;34.854;-92.408;2023-03-04T03:08:23;99990.98;;;19.54;39.53
37710;BME280;60223;34.854;-92.408;2023-03-04T03:10:49;99995.58;;;19.44;39.70
37710;BME280;60223;34.854;-92.408;2023-03-04T03:13:14;99999.88;;;19.06;39.68
37710;BME280;60223;34.854;-92.408;2023-03-04T03:15:39;100000.33;;;19.19;40.27
37710;BME280;60223;34.854;-92.408;2023-03-04T03:18:06;100007.28;;;19.49;40.06
37710;BME280;60223;34.854;-92.408;2023-03-04T03:20:32;100009.22;;;19.25;39.99
37710;BME280;60223;34.854;-92.408;2023-03-04T03:22:57;100010.65;;;19.26;40.18
37710;BME280;60223;34.854;-92.408;2023-03-04T03:25:23;100012.14;;;18.94;40.41
37710;BME280;60223;34.854;-92.408;2023-03-04T03:27:48;100015.02;;;18.73;41.07
37710;BME280;60223;34.854;-92.408;2023-03-04T03:30:16;100019.81;;;18.65;40.58
37710;BME280;60223;34.854;-92.408;2023-03-04T03:32:40;100022.28;;;20.31;39.30
37710;BME280;60223;34.854;-92.408;2023-03-04T03:35:05;100028.00;;;19.98;38.77
37710;BME280;60223;34.854;-92.408;2023-03-04T03:37:31;100024.16;;;20.01;38.83
37710;BME280;60223;34.854;-92.408;2023-03-04T03:39:57;100028.59;;;19.20;39.83
37710;BME280;60223;34.854;-92.408;2023-03-04T03:42:23;100034.72;;;19.27;39.63
37710;BME280;60223;34.854;-92.408;2023-03-04T03:44:48;100037.05;;;19.19;39.74
37710;BME280;60223;34.854;-92.408;2023-03-04T03:47:11;100032.71;;;19.00;39.85
37710;BME280;60223;34.854;-92.408;2023-03-04T03:49:40;100028.92;;;19.18;39.88
37710;BME280;60223;34.854;-92.408;2023-03-04T03:52:05;100029.11;;;18.95;40.12
37710;BME280;60223;34.854;-92.408;2023-03-04T03:54:29;100029.97;;;19.01;40.11
37710;BME280;60223;34.854;-92.408;2023-03-04T03:56:56;100031.95;;;19.19;39.83
37710;BME280;60223;34.854;-92.408;2023-03-04T03:59:22;100031.69;;;18.74;40.46
37710;BME280;60223;34.854;-92.408;2023-03-04T04:01:48;100029.85;;;18.84;40.39
37710;BME280;60223;34.854;-92.408;2023-03-04T04:04:29;100031.50;;;20.58;37.87
37710;BME280;60223;34.854;-92.408;2023-03-04T04:06:39;100031.16;;;20.00;38.33
37710;BME280;60223;34.854;-92.408;2023-03-04T04:09:04;100032.47;;;19.76;38.72
37710;BME280;60223;34.854;-92.408;2023-03-04T04:11:31;100031.94;;;19.25;39.23
37710;BME280;60223;34.854;-92.408;2023-03-04T04:13:53;100029.42;;;19.26;39.15
37710;BME280;60223;34.854;-92.408;2023-03-04T04:16:22;100027.23;;;19.27;38.97
37710;BME280;60223;34.854;-92.408;2023-03-04T04:18:48;100029.89;;;19.02;39.84
37710;BME280;60223;34.854;-92.408;2023-03-04T04:21:14;100032.48;;;18.80;39.53
37710;BME280;60223;34.854;-92.408;2023-03-04T04:23:39;100034.31;;;19.06;39.55
37710;BME280;60223;34.854;-92.408;2023-03-04T04:26:03;100031.58;;;19.13;39.94
37710;BME280;60223;34.854;-92.408;2023-03-04T04:28:31;100029.33;;;18.81;39.86
37710;BME280;60223;34.854;-92.408;2023-03-04T04:30:56;100031.94;;;18.99;40.00
37710;BME280;60223;34.854;-92.408;2023-03-04T04:33:22;100035.44;;;19.15;40.06
37710;BME280;60223;34.854;-92.408;2023-03-04T04:35:48;100041.98;;;18.77;40.24
37710;BME280;60223;34.854;-92.408;2023-03-04T04:38:13;100046.54;;;18.91;40.35
37710;BME280;60223;34.854;-92.408;2023-03-04T04:40:39;100047.18;;;18.50;40.62
37710;BME280;60223;34.854;-92.408;2023-03-04T04:43:05;100047.63;;;18.26;40.64
37710;BME280;60223;34.854;-92.408;2023-03-04T04:45:31;100048.71;;;18.40;40.67
37710;BME280;60223;34.854;-92.408;2023-03-04T04:47:56;100048.16;;;18.61;40.65
37710;BME280;60223;34.854;-92.408;2023-03-04T04:50:22;100050.70;;;18.69;40.47
37710;BME280;60223;34.854;-92.408;2023-03-04T04:52:47;100057.22;;;18.84;39.97
37710;BME280;60223;34.854;-92.408;2023-03-04T04:55:14;100057.08;;;19.01;40.02
37710;BME280;60223;34.854;-92.408;2023-03-04T04:57:39;100060.24;;;18.74;39.86
37710;BME280;60223;34.854;-92.408;2023-03-04T05:00:06;100060.55;;;18.97;39.43
37710;BME280;60223;34.854;-92.408;2023-03-04T05:02:29;100063.65;;;19.17;39.51
37710;BME280;60223;34.854;-92.408;2023-03-04T05:04:53;100064.97;;;19.03;39.25
37710;BME280;60223;34.854;-92.408;2023-03-04T05:07:20;100066.92;;;19.48;38.83
37710;BME280;60223;34.854;-92.408;2023-03-04T05:09:47;100065.24;;;19.21;38.91
37710;BME280;60223;34.854;-92.408;2023-03-04T05:12:14;100063.52;;;19.61;38.41
37710;BME280;60223;34.854;-92.408;2023-03-04T05:14:39;100058.46;;;19.25;38.84
37710;BME280;60223;34.854;-92.408;2023-03-04T05:17:05;100058.31;;;19.58;38.58
37710;BME280;60223;34.854;-92.408;2023-03-04T05:19:31;100062.05;;;19.18;38.82
37710;BME280;60223;34.854;-92.408;2023-03-04T05:21:55;100060.97;;;19.51;38.76
37710;BME280;60223;34.854;-92.408;2023-03-04T05:24:22;100062.49;;;19.39;38.47
37710;BME280;60223;34.854;-92.408;2023-03-04T05:26:47;100062.85;;;19.36;38.53
37710;BME280;60223;34.854;-92.408;2023-03-04T05:29:13;100063.37;;;19.35;38.69
37710;BME280;60223;34.854;-92.408;2023-03-04T05:31:39;100066.04;;;19.39;38.46
37710;BME280;60223;34.854;-92.408;2023-03-04T05:34:03;100067.94;;;19.19;38.48
37710;BME280;60223;34.854;-92.408;2023-03-04T05:36:30;100068.06;;;19.20;38.66
37710;BME280;60223;34.854;-92.408;2023-03-04T05:38:56;100064.04;;;19.28;38.47
37710;BME280;60223;34.854;-92.408;2023-03-04T05:41:22;100057.33;;;19.11;38.71
37710;BME280;60223;34.854;-92.408;2023-03-04T05:43:48;100054.50;;;19.12;38.63
37710;BME280;60223;34.854;-92.408;2023-03-04T05:46:16;100059.66;;;19.07;38.78
37710;BME280;60223;34.854;-92.408;2023-03-04T05:48:39;100064.39;;;19.08;38.76
37710;BME280;60223;34.854;-92.408;2023-03-04T05:51:05;100068.94;;;19.22;38.76
37710;BME280;60223;34.854;-92.408;2023-03-04T05:53:31;100069.29;;;19.17;38.83
37710;BME280;60223;34.854;-92.408;2023-03-04T05:55:56;100081.21;;;19.34;38.90
37710;BME280;60223;34.854;-92.408;2023-03-04T05:58:22;100085.11;;;19.91;38.21
37710;BME280;60223;34.854;-92.408;2023-03-04T06:00:48;100091.37;;;18.98;38.84
37710;BME280;60223;34.854;-92.408;2023-03-04T06:03:17;100093.83;;;19.13;38.68
37710;BME280;60223;34.854;-92.408;2023-03-04T06:05:39;100093.87;;;18.99;38.60
37710;BME280;60223;34.854;-92.408;2023-03-04T06:08:05;100098.55;;;19.25;38.60
37710;BME280;60223;34.854;-92.408;2023-03-04T06:10:30;100101.75;;;19.06;38.62
37710;BME280;60223;34.854;-92.408;2023-03-04T06:12:55;100106.30;;;18.84;38.78
37710;BME280;60223;34.854;-92.408;2023-03-04T06:15:22;100108.35;;;19.00;38.63
37710;BME280;60223;34.854;-92.408;2023-03-04T06:17:47;100113.05;;;19.08;38.42
37710;BME280;60223;34.854;-92.408;2023-03-04T06:20:14;100119.84;;;19.04;38.54
37710;BME280;60223;34.854;-92.408;2023-03-04T06:22:39;100122.35;;;18.91;38.64
37710;BME280;60223;34.854;-92.408;2023-03-04T06:25:04;100121.93;;;19.14;38.34
37710;BME280;60223;34.854;-92.408;2023-03-04T06:27:30;100121.85;;;18.72;38.62
37710;BME280;60223;34.854;-92.408;2023-03-04T06:29:56;100127.50;;;19.05;38.57
37710;BME280;60223;34.854;-92.408;2023-03-04T06:32:22;100129.83;;;19.10;38.45
37710;BME280;60223;34.854;-92.408;2023-03-04T06:34:47;100133.10;;;18.96;38.20
37710;BME280;60223;34.854;-92.408;2023-03-04T06:37:14;100135.02;;;18.84;38.31
37710;BME280;60223;34.854;-92.408;2023-03-04T06:39:38;100141.80;;;18.90;38.32
37710;BME280;60223;34.854;-92.408;2023-03-04T06:42:04;100145.83;;;19.43;38.20
37710;BME280;60223;34.854;-92.408;2023-03-04T06:44:30;100151.01;;;19.05;38.17
37710;BME280;60223;34.854;-92.408;2023-03-04T06:46:56;100153.71;;;19.16;38.21
37710;BME280;60223;34.854;-92.408;2023-03-04T06:49:22;100159.01;;;18.92;38.25
37710;BME280;60223;34.854;-92.408;2023-03-04T06:51:48;100160.51;;;19.10;38.17
37710;BME280;60223;34.854;-92.408;2023-03-04T06:54:13;100165.35;;;19.13;38.11
37710;BME280;60223;34.854;-92.408;2023-03-04T06:56:39;100169.95;;;18.72;38.41
37710;BME280;60223;34.854;-92.408;2023-03-04T06:59:03;100176.06;;;18.95;38.35
37710;BME280;60223;34.854;-92.408;2023-03-04T07:01:31;100176.84;;;18.96;38.24
37710;BME280;60223;34.854;-92.408;2023-03-04T07:03:57;100179.18;;;18.95;38.28
37710;BME280;60223;34.854;-92.408;2023-03-04T07:06:23;100187.20;;;18.88;38.36
37710;BME280;60223;34.854;-92.408;2023-03-04T07:08:48;100193.49;;;19.09;38.36
37710;BME280;60223;34.854;-92.408;2023-03-04T07:11:13;100199.27;;;19.04;38.50
37710;BME280;60223;34.854;-92.408;2023-03-04T07:13:39;100206.80;;;19.00;38.10
37710;BME280;60223;34.854;-92.408;2023-03-04T07:16:05;100211.47;;;18.97;38.02
37710;BME280;60223;34.854;-92.408;2023-03-04T07:18:30;100217.54;;;18.58;38.57
37710;BME280;60223;34.854;-92.408;2023-03-04T07:20:56;100222.77;;;18.89;38.12
37710;BME280;60223;34.854;-92.408;2023-03-04T07:23:22;100225.69;;;19.00;37.98
37710;BME280;60223;34.854;-92.408;2023-03-04T07:25:48;100230.94;;;19.26;37.89
37710;BME280;60223;34.854;-92.408;2023-03-04T07:28:13;100230.59;;;19.20;38.01
37710;BME280;60223;34.854;-92.408;2023-03-04T07:30:39;100231.85;;;18.75;38.16
37710;BME280;60223;34.854;-92.408;2023-03-04T07:33:04;100229.88;;;19.05;37.92
37710;BME280;60223;34.854;-92.408;2023-03-04T07:35:27;100227.91;;;18.98;38.05
37710;BME280;60223;34.854;-92.408;2023-03-04T07:37:56;100227.01;;;18.64;37.93
37710;BME280;60223;34.854;-92.408;2023-03-04T07:40:22;100230.59;;;19.00;37.69
37710;BME280;60223;34.854;-92.408;2023-03-04T07:42:52;100229.69;;;18.95;37.85
37710;BME280;60223;34.854;-92.408;2023-03-04T07:45:14;100234.53;;;18.73;38.03
37710;BME280;60223;34.854;-92.408;2023-03-04T07:47:39;100228.70;;;19.17;37.66
37710;BME280;60223;34.854;-92.408;2023-03-04T07:50:05;100233.01;;;18.91;37.93
37710;BME280;60223;34.854;-92.408;2023-03-04T07:52:29;100234.35;;;18.49;37.94
37710;BME280;60223;34.854;-92.408;2023-03-04T07:54:56;100237.23;;;18.65;38.01
37710;BME280;60223;34.854;-92.408;2023-03-04T07:57:22;100235.94;;;18.61;37.73
37710;BME280;60223;34.854;-92.408;2023-03-04T07:59:48;100238.58;;;19.00;37.78
37710;BME280;60223;34.854;-92.408;2023-03-04T08:02:13;100240.44;;;18.58;37.90
37710;BME280;60223;34.854;-92.408;2023-03-04T08:04:39;100244.39;;;18.79;37.95
37710;BME280;60223;34.854;-92.408;2023-03-04T08:07:05;100245.55;;;18.72;37.74
37710;BME280;60223;34.854;-92.408;2023-03-04T08:09:31;100245.23;;;18.89;37.75
37710;BME280;60223;34.854;-92.408;2023-03-04T08:11:57;100246.33;;;18.73;37.99
37710;BME280;60223;34.854;-92.408;2023-03-04T08:14:21;100245.42;;;19.03;37.56
37710;BME280;60223;34.854;-92.408;2023-03-04T08:16:48;100242.30;;;18.85;37.57
37710;BME280;60223;34.854;-92.408;2023-03-04T08:19:14;100246.89;;;19.00;37.54
37710;BME280;60223;34.854;-92.408;2023-03-04T08:21:40;100248.66;;;18.98;37.65
37710;BME280;60223;34.854;-92.408;2023-03-04T08:24:05;100250.19;;;18.42;37.62
37710;BME280;60223;34.854;-92.408;2023-03-04T08:26:32;100247.07;;;18.99;37.57
37710;BME280;60223;34.854;-92.408;2023-03-04T08:28:57;100247.71;;;18.74;37.82
37710;BME280;60223;34.854;-92.408;2023-03-04T08:31:21;100249.68;;;18.77;37.84
37710;BME280;60223;34.854;-92.408;2023-03-04T08:33:48;100252.72;;;18.75;37.74
37710;BME280;60223;34.854;-92.408;2023-03-04T08:36:14;100249.30;;;18.82;37.62
37710;BME280;60223;34.854;-92.408;2023-03-04T08:38:40;100249.64;;;18.88;37.53
37710;BME280;60223;34.854;-92.408;2023-03-04T08:41:05;100249.40;;;18.83;37.52
37710;BME280;60223;34.854;-92.408;2023-03-04T08:43:28;100244.82;;;18.52;37.68
37710;BME280;60223;34.854;-92.408;2023-03-04T08:45:57;100240.54;;;19.01;37.33
37710;BME280;60223;34.854;-92.408;2023-03-04T08:48:23;100242.79;;;19.01;37.32
37710;BME280;60223;34.854;-92.408;2023-03-04T08:50:48;100243.72;;;18.35;37.47
37710;BME280;60223;34.854;-92.408;2023-03-04T08:53:13;100250.24;;;18.82;37.50
37710;BME280;60223;34.854;-92.408;2023-03-04T08:55:41;100247.36;;;18.96;37.29
37710;BME280;60223;34.854;-92.408;2023-03-04T08:58:03;100248.11;;;18.60;37.34
37710;BME280;60223;34.854;-92.408;2023-03-04T09:00:31;100249.75;;;18.69;37.51
37710;BME280;60223;34.854;-92.408;2023-03-04T09:02:57;100247.66;;;19.11;37.35
37710;BME280;60223;34.854;-92.408;2023-03-04T09:05:22;100249.65;;;18.52;37.46
37710;BME280;60223;34.854;-92.408;2023-03-04T09:07:48;100251.73;;;18.89;37.59
37710;BME280;60223;34.854;-92.408;2023-03-04T09:10:14;100252.78;;;18.44;37.49
37710;BME280;60223;34.854;-92.408;2023-03-04T09:12:39;100254.61;;;18.63;37.19
37710;BME280;60223;34.854;-92.408;2023-03-04T09:15:06;100253.13;;;18.64;37.51
37710;BME280;60223;34.854;-92.408;2023-03-04T09:17:31;100257.34;;;18.66;37.25
37710;BME280;60223;34.854;-92.408;2023-03-04T09:19:57;100257.08;;;18.55;37.31
37710;BME280;60223;34.854;-92.408;2023-03-04T09:22:22;100260.04;;;18.66;37.48
37710;BME280;60223;34.854;-92.408;2023-03-04T09:24:46;100260.46;;;18.59;37.45
37710;BME280;60223;34.854;-92.408;2023-03-04T09:27:14;100263.38;;;18.34;37.53
37710;BME280;60223;34.854;-92.408;2023-03-04T09:29:40;100266.82;;;18.52;37.26
37710;BME280;60223;34.854;-92.408;2023-03-04T09:32:05;100273.53;;;18.81;37.18
37710;BME280;60223;34.854;-92.408;2023-03-04T09:34:31;100274.56;;;18.67;37.28
37710;BME280;60223;34.854;-92.408;2023-03-04T09:36:55;100275.61;;;18.79;37.11
37710;BME280;60223;34.854;-92.408;2023-03-04T09:39:23;100284.26;;;18.56;37.06
37710;BME280;60223;34.854;-92.408;2023-03-04T09:41:48;100284.14;;;18.74;37.19
37710;BME280;60223;34.854;-92.408;2023-03-04T09:44:25;100284.31;;;18.81;37.04
37710;BME280;60223;34.854;-92.408;2023-03-04T09:46:44;100287.43;;;18.85;36.96
37710;BME280;60223;34.854;-92.408;2023-03-04T09:49:09;100287.49;;;18.71;37.12
37710;BME280;60223;34.854;-92.408;2023-03-04T09:51:42;100289.30;;;18.91;36.79
37710;BME280;60223;34.854;-92.408;2023-03-04T09:54:08;100287.74;;;18.83;36.88
37710;BME280;60223;34.854;-92.408;2023-03-04T09:56:27;100287.83;;;18.81;36.95
37710;BME280;60223;34.854;-92.408;2023-03-04T09:58:59;100292.78;;;18.87;36.80
37710;BME280;60223;34.854;-92.408;2023-03-04T10:01:24;100296.15;;;18.81;36.87
37710;BME280;60223;34.854;-92.408;2023-03-04T10:03:46;100302.76;;;18.68;37.08
37710;BME280;60223;34.854;-92.408;2023-03-04T10:06:12;100305.07;;;18.69;36.89
37710;BME280;60223;34.854;-92.408;2023-03-04T10:08:38;100308.31;;;18.81;36.70
37710;BME280;60223;34.854;-92.408;2023-03-04T10:11:02;100306.94;;;18.90;36.69
37710;BME280;60223;34.854;-92.408;2023-03-04T10:13:30;100306.08;;;18.93;36.58
37710;BME280;60223;34.854;-92.408;2023-03-04T10:15:52;100307.98;;;18.79;36.45
37710;BME280;60223;34.854;-92.408;2023-03-04T10:18:19;100311.30;;;18.73;36.78
37710;BME280;60223;34.854;-92.408;2023-03-04T10:20:53;100320.13;;;18.63;36.90
37710;BME280;60223;34.854;-92.408;2023-03-04T10:23:14;100322.32;;;18.58;36.96
37710;BME280;60223;34.854;-92.408;2023-03-04T10:25:36;100323.50;;;18.72;36.78
37710;BME280;60223;34.854;-92.408;2023-03-04T10:28:02;100328.06;;;18.42;37.16
37710;BME280;60223;34.854;-92.408;2023-03-04T10:30:37;100335.62;;;18.51;36.96
37710;BME280;60223;34.854;-92.408;2023-03-04T10:32:51;100339.16;;;18.63;36.81
37710;BME280;60223;34.854;-92.408;2023-03-04T10:35:19;100336.52;;;18.62;36.90
37710;BME280;60223;34.854;-92.408;2023-03-04T10:37:49;100338.11;;;18.50;36.68
37710;BME280;60223;34.854;-92.408;2023-03-04T10:40:18;100340.17;;;18.97;36.28
37710;BME280;60223;34.854;-92.408;2023-03-04T10:42:37;100343.25;;;18.59;36.73
37710;BME280;60223;34.854;-92.408;2023-03-04T10:44:59;100349.72;;;18.60;36.76
37710;BME280;60223;34.854;-92.408;2023-03-04T10:47:28;100349.17;;;18.63;36.73
37710;BME280;60223;34.854;-92.408;2023-03-04T10:49:54;100351.71;;;18.41;36.98
37710;BME280;60223;34.854;-92.408;2023-03-04T10:52:26;100356.42;;;18.45;36.92
37710;BME280;60223;34.854;-92.408;2023-03-04T10:54:46;100356.53;;;18.67;36.61
37710;BME280;60223;34.854;-92.408;2023-03-04T10:57:17;100356.92;;;18.79;36.43
37710;BME280;60223;34.854;-92.408;2023-03-04T10:59:42;100360.88;;;18.65;36.52
37710;BME280;60223;34.854;-92.408;2023-03-04T11:02:05;100364.31;;;18.38;36.89
37710;BME280;60223;34.854;-92.408;2023-03-04T11:04:31;100366.64;;;19.01;36.33
37710;BME280;60223;34.854;-92.408;2023-03-04T11:06:51;100364.61;;;18.14;36.81
37710;BME280;60223;34.854;-92.408;2023-03-04T11:09:25;100369.37;;;18.18;36.76
37710;BME280;60223;34.854;-92.408;2023-03-04T11:11:45;100372.58;;;18.46;36.46
37710;BME280;60223;34.854;-92.408;2023-03-04T11:14:18;100374.42;;;18.67;36.41
37710;BME280;60223;34.854;-92.408;2023-03-04T11:16:36;100375.01;;;18.38;36.81
37710;BME280;60223;34.854;-92.408;2023-03-04T11:19:03;100378.67;;;18.49;36.62
37710;BME280;60223;34.854;-92.408;2023-03-04T11:21:29;100382.55;;;18.19;36.63
37710;BME280;60223;34.854;-92.408;2023-03-04T11:23:54;100382.95;;;18.30;36.85
37710;BME280;60223;34.854;-92.408;2023-03-04T11:26:21;100382.99;;;18.88;36.64
37710;BME280;60223;34.854;-92.408;2023-03-04T11:28:48;100381.61;;;18.72;36.29
37710;BME280;60223;34.854;-92.408;2023-03-04T11:31:13;100378.55;;;18.47;36.57
37710;BME280;60223;34.854;-92.408;2023-03-04T11:33:42;100376.61;;;18.26;36.69
37710;BME280;60223;34.854;-92.408;2023-03-04T11:36:11;100381.69;;;18.90;36.23
37710;BME280;60223;34.854;-92.408;2023-03-04T11:38:31;100386.62;;;18.65;36.26
37710;BME280;60223;34.854;-92.408;2023-03-04T11:40:56;100389.27;;;18.68;36.13
37710;BME280;60223;34.854;-92.408;2023-03-04T11:43:23;100388.34;;;18.22;36.60
37710;BME280;60223;34.854;-92.408;2023-03-04T11:45:57;100390.98;;;18.26;36.48
37710;BME280;60223;34.854;-92.408;2023-03-04T11:48:15;100392.39;;;18.52;36.46
37710;BME280;60223;34.854;-92.408;2023-03-04T11:50:44;100393.82;;;18.15;36.62
37710;BME280;60223;34.854;-92.408;2023-03-04T11:53:19;100398.18;;;18.22;36.80
37710;BME280;60223;34.854;-92.408;2023-03-04T11:55:35;100398.44;;;18.17;36.95
37710;BME280;60223;34.854;-92.408;2023-03-04T11:57:59;100401.62;;;18.10;36.71
37710;BME280;60223;34.854;-92.408;2023-03-04T12:00:29;100402.74;;;18.53;36.51
37710;BME280;60223;34.854;-92.408;2023-03-04T12:02:58;100404.27;;;18.29;36.70
37710;BME280;60223;34.854;-92.408;2023-03-04T12:05:21;100404.55;;;18.41;36.60
37710;BME280;60223;34.854;-92.408;2023-03-04T12:07:47;100413.04;;;18.03;36.64
37710;BME280;60223;34.854;-92.408;2023-03-04T12:10:12;100420.49;;;18.16;36.79
37710;BME280;60223;34.854;-92.408;2023-03-04T12:14:59;100433.35;;;17.93;36.69
37710;BME280;60223;34.854;-92.408;2023-03-04T12:17:35;100437.39;;;18.38;36.83
37710;BME280;60223;34.854;-92.408;2023-03-04T12:19:55;100445.21;;;18.33;36.61
37710;BME280;60223;34.854;-92.408;2023-03-04T12:22:24;100448.69;;;18.39;36.80
37710;BME280;60223;34.854;-92.408;2023-03-04T12:24:47;100457.13;;;18.29;36.62
37710;BME280;60223;34.854;-92.408;2023-03-04T12:27:06;100464.68;;;18.44;36.67
37710;BME280;60223;34.854;-92.408;2023-03-04T12:29:33;100470.33;;;17.79;36.88